createdAt,value
2022-09-05T00:02:06.878Z,72.40
2022-09-05T00:04:57.815Z,72.20
2022-09-05T00:07:59.355Z,72.20
2022-09-05T00:11:42.066Z,72.30
2022-09-05T00:13:42.092Z,71.80
2022-09-05T00:16:23.032Z,71.80
2022-09-05T00:24:17.353Z,71.60
2022-09-05T00:24:32.757Z,71.70
2022-09-05T00:25:32.437Z,71.50
2022-09-05T00:28:25.928Z,71.60
2022-09-05T00:31:55.020Z,71.60
2022-09-05T00:34:12.710Z,71.70
2022-09-05T00:36:46.881Z,71.70
2022-09-05T00:39:27.359Z,71.50
2022-09-05T00:41:59.763Z,72.40
2022-09-05T00:44:31.364Z,71.80
2022-09-05T00:47:16.002Z,71.90
2022-09-05T00:49:54.996Z,72.00
2022-09-05T00:52:31.236Z,71.90
2022-09-05T00:55:46.025Z,71.80
2022-09-05T00:58:40.033Z,71.90
2022-09-05T01:01:37.415Z,72.00
2022-09-05T01:04:27.893Z,72.20
2022-09-05T01:07:12.642Z,72.10
2022-09-05T01:09:56.991Z,71.80
2022-09-05T01:12:52.808Z,71.70
2022-09-05T01:15:32.682Z,71.80
2022-09-05T01:18:07.102Z,71.90
2022-09-05T01:20:57.381Z,72.00
2022-09-05T01:23:29.924Z,72.10
2022-09-05T01:26:37.854Z,71.90
2022-09-05T01:29:17.657Z,71.80
2022-09-05T01:32:18.238Z,71.80
2022-09-05T01:35:01.465Z,72.00
2022-09-05T01:37:48.098Z,71.90
2022-09-05T01:40:27.514Z,72.10
2022-09-05T01:43:17.450Z,72.00
2022-09-05T01:45:51.743Z,71.90
2022-09-05T01:48:47.978Z,71.80
2022-09-05T01:51:33.029Z,72.10
2022-09-05T01:54:33.986Z,72.00
2022-09-05T01:57:24.390Z,72.40
2022-09-05T02:00:10.692Z,72.10
2022-09-05T02:02:56.121Z,72.40
2022-09-05T02:05:47.776Z,72.30
2022-09-05T02:08:16.079Z,72.50
2022-09-05T02:11:03.916Z,72.50
2022-09-05T02:13:36.588Z,72.50
2022-09-05T02:16:21.652Z,72.80
2022-09-05T02:19:11.087Z,73.00
2022-09-05T02:21:56.224Z,72.80
2022-09-05T02:24:32.934Z,72.90
2022-09-05T02:27:31.689Z,72.80
2022-09-05T02:30:19.320Z,73.00
2022-09-05T02:32:57.891Z,72.90
2022-09-05T02:35:40.901Z,73.00
2022-09-05T02:40:56.020Z,73.10
2022-09-05T02:45:07.890Z,73.30
2022-09-05T02:45:18.590Z,73.50
2022-09-05T02:47:42.681Z,73.60
2022-09-05T02:53:19.676Z,73.80
2022-09-05T02:57:41.361Z,74.10
2022-09-05T02:57:41.754Z,74.00
2022-09-05T02:59:36.594Z,74.30
2022-09-05T03:02:19.685Z,74.50
2022-09-05T03:05:08.074Z,74.90
2022-09-05T03:08:01.602Z,74.90
2022-09-05T03:10:53.706Z,75.10
2022-09-05T03:13:30.219Z,75.30
2022-09-05T03:16:24.784Z,75.50
2022-09-05T03:19:16.426Z,75.80
2022-09-05T03:22:22.394Z,76.10
2022-09-05T03:24:56.255Z,76.30
2022-09-05T03:28:05.408Z,76.50
2022-09-05T03:30:53.894Z,76.60
2022-09-05T03:33:51.768Z,76.90
2022-09-05T03:36:39.899Z,77.10
2022-09-05T03:39:44.634Z,76.90
2022-09-05T03:42:59.771Z,77.10
2022-09-05T03:45:37.876Z,77.20
2022-09-05T03:48:27.883Z,77.30
2022-09-05T03:57:05.154Z,77.40
2022-09-05T03:57:15.450Z,77.50
2022-09-05T03:57:42.329Z,77.50
2022-09-05T04:00:21.690Z,77.90
2022-09-05T04:08:08.851Z,78.00
2022-09-05T04:08:31.534Z,77.90
2022-09-05T04:09:19.313Z,77.90
2022-09-05T04:12:01.791Z,77.90
2022-09-05T04:14:43.838Z,78.20
2022-09-05T04:17:24.782Z,78.10
2022-09-05T04:20:02.625Z,78.10
2022-09-05T04:23:01.872Z,78.10
2022-09-05T04:26:12.561Z,78.20
2022-09-05T04:29:04.056Z,78.30
2022-09-05T04:31:36.902Z,78.30
2022-09-05T04:34:35.270Z,78.40
2022-09-05T04:37:05.559Z,78.50
2022-09-05T04:39:33.519Z,78.50
2022-09-05T04:42:17.985Z,78.60
2022-09-05T04:44:51.253Z,78.70
2022-09-05T04:47:29.413Z,78.70
2022-09-05T04:50:05.094Z,79.10
2022-09-05T04:52:53.415Z,79.10
2022-09-05T04:55:39.483Z,78.80
2022-09-05T04:58:39.183Z,78.50
2022-09-05T05:06:00.846Z,78.70
2022-09-05T05:06:11.903Z,78.30
2022-09-05T05:07:25.089Z,78.40
2022-09-05T05:10:28.238Z,78.70
2022-09-05T05:17:57.232Z,78.90
2022-09-05T05:18:08.288Z,79.20
2022-09-05T05:19:05.131Z,79.40
2022-09-05T05:21:35.622Z,79.70
2022-09-05T05:24:12.971Z,79.50
2022-09-05T05:26:48.187Z,79.80
2022-09-05T05:29:38.806Z,79.80
2022-09-05T05:32:07.737Z,79.90
2022-09-05T05:34:45.049Z,80.20
2022-09-05T05:37:53.529Z,80.40
2022-09-05T05:40:26.461Z,80.70
2022-09-05T05:43:17.541Z,80.50
2022-09-05T05:45:44.625Z,80.60
2022-09-05T05:48:21.888Z,80.50
2022-09-05T05:50:54.544Z,80.40
2022-09-05T05:53:33.646Z,80.50
2022-09-05T05:56:21.517Z,80.20
2022-09-05T05:59:24.789Z,79.70
2022-09-05T06:02:29.669Z,79.10
2022-09-05T06:05:04.173Z,77.40
2022-09-05T06:09:40.771Z,75.90
2022-09-05T06:15:05.447Z,73.60
2022-09-05T06:15:22.335Z,71.10
2022-09-05T06:17:52.177Z,69.30
2022-09-05T06:22:04.096Z,68.80
2022-09-05T06:23:54.569Z,69.10
2022-09-05T06:26:52.132Z,68.50
2022-09-05T06:29:38.296Z,68.30
2022-09-05T06:32:30.290Z,67.10
2022-09-05T06:35:32.374Z,67.80
2022-09-05T06:38:04.705Z,70.00
2022-09-05T06:41:07.286Z,71.60
2022-09-05T06:43:40.206Z,73.40
2022-09-05T06:46:24.127Z,75.60
2022-09-05T06:49:33.398Z,77.00
2022-09-05T06:52:32.141Z,78.90
2022-09-05T06:55:11.115Z,80.60
2022-09-05T06:57:44.651Z,82.20
2022-09-05T07:00:22.622Z,83.30
2022-09-05T07:03:00.625Z,84.20
2022-09-05T07:05:45.783Z,85.90
2022-09-05T07:08:39.855Z,87.00
2022-09-05T07:11:16.709Z,86.90
2022-09-05T07:13:54.840Z,88.10
2022-09-05T07:16:54.210Z,88.90
2022-09-05T07:19:55.844Z,89.90
2022-09-05T07:22:47.274Z,90.20
2022-09-05T07:25:26.296Z,90.30
2022-09-05T07:28:26.456Z,90.60
2022-09-05T07:31:07.590Z,90.70
2022-09-05T07:33:37.878Z,91.20
2022-09-05T07:36:13.055Z,91.90
2022-09-05T07:38:55.219Z,92.30
2022-09-05T07:41:29.302Z,93.00
2022-09-05T07:44:20.938Z,93.90
2022-09-05T07:46:56.289Z,95.00
2022-09-05T07:49:28.053Z,96.20
2022-09-05T07:56:56.083Z,96.90
2022-09-05T07:56:59.016Z,97.80
2022-09-05T07:57:52.230Z,98.40
2022-09-05T08:00:26.490Z,98.30
2022-09-05T08:02:59.290Z,99.00
2022-09-05T08:05:35.903Z,98.90
2022-09-05T08:08:09.208Z,98.50
2022-09-05T08:11:24.389Z,98.40
2022-09-05T08:13:42.699Z,98.40
2022-09-05T08:16:17.308Z,97.00
2022-09-05T08:19:08.291Z,96.40
2022-09-05T08:21:42.474Z,96.50
2022-09-05T08:24:24.725Z,96.90
2022-09-05T08:26:59.353Z,97.00
2022-09-05T08:29:42.683Z,97.40
2022-09-05T08:32:17.811Z,97.90
2022-09-05T08:34:51.858Z,97.70
2022-09-05T08:37:23.626Z,97.60
2022-09-05T08:40:11.129Z,97.20
2022-09-05T08:42:46.940Z,97.10
2022-09-05T08:46:39.789Z,95.70
2022-09-05T08:48:56.546Z,93.90
2022-09-05T08:51:53.984Z,92.50
2022-09-05T08:54:35.878Z,91.40
2022-09-05T08:57:27.537Z,90.80
2022-09-05T09:00:20.798Z,89.50
2022-09-05T09:03:13.011Z,87.20
2022-09-05T09:06:13.414Z,87.00
2022-09-05T09:08:53.448Z,85.60
2022-09-05T09:11:32.465Z,83.20
2022-09-05T09:14:30.650Z,83.60
2022-09-05T09:17:05.052Z,81.50
2022-09-05T09:19:43.996Z,81.30
2022-09-05T09:22:25.773Z,81.50
2022-09-05T09:25:14.897Z,80.40
2022-09-05T09:28:48.824Z,80.90
2022-09-05T09:30:36.153Z,81.20
2022-09-05T09:33:06.211Z,82.30
2022-09-05T09:35:56.706Z,82.70
2022-09-05T09:38:45.867Z,82.90
2022-09-05T09:41:29.831Z,82.10
2022-09-05T09:44:27.278Z,83.10
2022-09-05T09:46:54.686Z,82.20
2022-09-05T09:49:49.742Z,82.60
2022-09-05T09:52:36.116Z,82.90
2022-09-05T09:55:41.055Z,82.80
2022-09-05T09:58:16.898Z,80.50
2022-09-05T10:01:20.287Z,80.70
2022-09-05T10:10:33.201Z,80.00
2022-09-05T10:10:45.885Z,79.60
2022-09-05T10:11:56.018Z,79.50
2022-09-05T10:14:49.090Z,80.30
2022-09-05T10:17:53.308Z,81.10
2022-09-05T10:21:16.290Z,80.00
2022-09-05T10:24:06.071Z,80.10
2022-09-05T10:26:35.905Z,78.10
2022-09-05T10:29:37.701Z,80.00
2022-09-05T10:35:11.369Z,80.50
2022-09-05T10:35:16.996Z,80.20
2022-09-05T10:37:54.222Z,79.10
2022-09-05T10:40:27.284Z,80.00
2022-09-05T10:43:02.135Z,81.20
2022-09-05T10:45:53.445Z,79.90
2022-09-05T10:48:26.422Z,79.00
2022-09-05T10:51:00.986Z,79.60
2022-09-05T10:54:10.717Z,79.40
2022-09-05T10:56:48.193Z,78.30
2022-09-05T11:02:19.384Z,78.20
2022-09-05T11:02:34.878Z,77.10
2022-09-05T11:05:26.400Z,76.90
2022-09-05T11:07:58.995Z,77.50
2022-09-05T11:10:41.004Z,77.40
2022-09-05T11:13:11.571Z,78.10
2022-09-05T11:16:03.724Z,79.00
2022-09-05T11:19:04.011Z,79.10
2022-09-05T11:21:45.791Z,79.10
2022-09-05T11:24:27.652Z,79.00
2022-09-05T11:27:25.031Z,79.00
2022-09-05T11:30:27.342Z,78.40
2022-09-05T11:39:48.206Z,76.30
2022-09-05T11:39:53.893Z,75.60
2022-09-05T11:40:02.118Z,75.30
2022-09-05T11:42:31.682Z,74.30
2022-09-05T11:45:36.818Z,72.90
2022-09-05T11:48:17.733Z,72.10
2022-09-05T11:51:28.258Z,71.30
2022-09-05T11:54:28.079Z,70.20
2022-09-05T11:57:32.213Z,71.10
2022-09-05T12:00:33.604Z,70.30
2022-09-05T12:03:59.330Z,70.60
2022-09-05T12:07:00.599Z,70.60
2022-09-05T12:09:53.752Z,69.70
2022-09-05T12:12:41.669Z,68.20
2022-09-05T12:15:33.947Z,68.30
2022-09-05T12:18:21.595Z,68.80
2022-09-05T12:21:19.789Z,68.90
2022-09-05T12:25:16.802Z,68.80
2022-09-05T12:27:41.242Z,69.00
2022-09-05T12:30:04.695Z,69.70
2022-09-05T12:35:48.592Z,71.00
2022-09-05T12:36:07.609Z,71.90
2022-09-05T12:40:54.354Z,71.50
2022-09-05T12:41:42.948Z,70.40
2022-09-05T12:44:41.304Z,69.30
2022-09-05T12:47:19.274Z,68.00
2022-09-05T12:50:03.331Z,67.40
2022-09-05T12:52:52.014Z,67.50
2022-09-05T12:55:20.252Z,66.60
2022-09-05T13:02:57.032Z,66.40
2022-09-05T13:03:06.577Z,66.30
2022-09-05T13:04:06.062Z,65.30
2022-09-05T13:06:41.529Z,65.70
2022-09-05T13:09:17.554Z,65.90
2022-09-05T13:14:56.948Z,66.00
2022-09-05T13:15:20.157Z,66.10
2022-09-05T13:18:10.865Z,66.70
2022-09-05T13:20:45.736Z,67.50
2022-09-05T13:23:21.720Z,67.80
2022-09-05T13:26:00.866Z,68.30
2022-09-05T13:28:52.872Z,67.90
2022-09-05T13:37:58.122Z,69.40
2022-09-05T13:38:05.627Z,69.80
2022-09-05T13:41:00.249Z,70.70
2022-09-05T13:43:38.380Z,70.50
2022-09-05T13:46:11.041Z,70.30
2022-09-05T13:51:47.896Z,70.00
2022-09-05T13:54:52.038Z,70.10
2022-09-05T13:57:34.905Z,69.20
2022-09-05T14:00:15.121Z,70.10
2022-09-05T14:06:37.805Z,69.40
2022-09-05T14:09:40.107Z,70.00
2022-09-05T14:12:32.798Z,70.40
2022-09-05T14:15:24.879Z,70.40
2022-09-05T14:17:58.571Z,71.10
2022-09-05T14:20:50.544Z,71.40
2022-09-05T14:23:21.319Z,71.50
2022-09-05T14:25:56.463Z,72.00
2022-09-05T14:28:33.031Z,72.20
2022-09-05T14:37:36.983Z,72.30
2022-09-05T14:37:40.299Z,72.70
2022-09-05T14:37:53.758Z,72.50
2022-09-05T14:40:32.540Z,72.70
2022-09-05T14:43:14.086Z,73.30
2022-09-05T14:45:48.457Z,73.20
2022-09-05T14:48:30.543Z,73.60
2022-09-05T14:51:25.430Z,73.50
2022-09-05T15:01:25.002Z,74.30
2022-09-05T15:02:51.985Z,74.70
2022-09-05T15:03:02.227Z,74.80
2022-09-05T15:05:38.816Z,75.40
2022-09-05T15:08:35.265Z,75.60
2022-09-05T15:12:15.090Z,75.60
2022-09-05T15:14:05.545Z,75.70
2022-09-05T15:16:40.383Z,75.10
2022-09-05T15:19:10.478Z,75.00
2022-09-05T15:21:41.279Z,74.50
2022-09-05T15:24:24.873Z,74.60
2022-09-05T15:26:52.962Z,74.00
2022-09-05T15:29:23.901Z,73.50
2022-09-05T15:31:51.438Z,72.70
2022-09-05T15:34:33.240Z,73.30
2022-09-05T15:37:20.753Z,73.40
2022-09-05T15:39:46.932Z,72.80
2022-09-05T15:42:31.229Z,73.60
2022-09-05T15:45:10.109Z,73.00
2022-09-05T15:47:43.548Z,73.50
2022-09-05T15:50:18.988Z,72.90
2022-09-05T15:52:55.074Z,72.80
2022-09-05T15:55:24.755Z,72.40
2022-09-05T15:58:04.904Z,72.00
2022-09-05T16:00:44.618Z,72.10
2022-09-05T16:06:10.708Z,72.00
2022-09-05T16:10:28.613Z,72.30
2022-09-05T16:10:45.711Z,72.30
2022-09-05T16:12:17.247Z,72.40
2022-09-05T16:15:27.818Z,72.60
2022-09-05T16:23:18.907Z,73.00
2022-09-05T16:23:27.316Z,73.30
2022-09-05T16:23:41.339Z,73.60
2022-09-05T16:26:44.705Z,74.10
2022-09-05T16:29:26.487Z,74.30
2022-09-05T16:32:13.380Z,74.40
2022-09-05T16:34:45.959Z,74.50
2022-09-05T16:37:15.480Z,74.60
2022-09-05T16:40:21.318Z,74.80
2022-09-05T16:43:02.352Z,75.00
2022-09-05T16:46:03.277Z,75.30
2022-09-05T16:48:39.394Z,75.20
2022-09-05T16:51:24.701Z,75.00
2022-09-05T16:54:12.795Z,75.20
2022-09-05T16:56:43.652Z,75.20
2022-09-05T16:59:17.883Z,75.10
2022-09-05T17:02:05.963Z,75.40
2022-09-05T17:05:04.637Z,75.40
2022-09-05T17:08:15.190Z,75.50
2022-09-05T17:10:45.035Z,75.70
2022-09-05T17:13:39.532Z,75.40
2022-09-05T17:16:13.801Z,75.40
2022-09-05T17:18:41.880Z,75.70
2022-09-05T17:21:29.947Z,75.90
2022-09-05T17:29:19.041Z,76.00
2022-09-05T17:29:32.867Z,76.00
2022-09-05T17:32:54.950Z,76.40
2022-09-05T17:35:42.568Z,76.50
2022-09-05T17:38:34.501Z,76.70
2022-09-05T17:41:34.253Z,77.00
2022-09-05T17:44:19.384Z,77.00
2022-09-05T17:47:10.236Z,77.30
2022-09-05T17:49:45.348Z,77.50
2022-09-05T17:52:16.667Z,77.50
2022-09-05T17:54:49.604Z,77.70
2022-09-05T17:57:28.956Z,77.80
2022-09-05T18:00:00.192Z,77.90
2022-09-05T18:02:52.914Z,78.00
2022-09-05T18:05:54.770Z,78.60
2022-09-05T18:08:56.760Z,78.70
2022-09-05T18:11:26.126Z,79.00
2022-09-05T18:13:54.381Z,79.00
2022-09-05T18:17:35.990Z,79.20
2022-09-05T18:20:00.165Z,79.50
2022-09-05T18:22:41.341Z,79.60
2022-09-05T18:25:28.305Z,79.90
2022-09-05T18:30:47.137Z,80.40
2022-09-05T18:33:54.232Z,80.50
2022-09-05T18:36:18.378Z,80.50
2022-09-05T18:39:24.821Z,80.80
2022-09-05T18:42:18.101Z,81.00
2022-09-05T18:44:59.721Z,80.80
2022-09-05T18:47:52.755Z,81.00
2022-09-05T18:50:29.374Z,80.80
2022-09-05T18:53:10.216Z,80.50
2022-09-05T18:56:13.445Z,80.40
2022-09-05T18:58:55.501Z,80.20
2022-09-05T19:02:00.800Z,80.10
2022-09-05T19:04:53.319Z,80.30
2022-09-05T19:07:32.158Z,80.30
2022-09-05T19:10:34.641Z,80.60
2022-09-05T19:13:17.100Z,80.90
2022-09-05T19:16:34.898Z,80.70
2022-09-05T19:19:11.249Z,81.00
2022-09-05T19:22:49.986Z,81.80
2022-09-05T19:24:47.409Z,81.00
2022-09-05T19:29:24.528Z,81.10
2022-09-05T19:36:55.468Z,81.80
2022-09-05T19:37:06.389Z,81.50
2022-09-05T19:37:06.987Z,81.70
2022-09-05T19:38:55.086Z,81.80
2022-09-05T19:47:25.997Z,81.80
2022-09-05T19:47:33.797Z,82.10
2022-09-05T19:48:04.291Z,82.40
2022-09-05T19:50:20.755Z,82.50
2022-09-05T19:52:52.994Z,82.40
2022-09-05T19:55:25.995Z,82.10
2022-09-05T19:58:19.278Z,81.90
2022-09-05T20:00:49.042Z,82.00
2022-09-05T20:03:30.511Z,81.90
2022-09-05T20:06:30.374Z,82.50
2022-09-05T20:09:14.168Z,82.70
2022-09-05T20:11:49.739Z,82.70
2022-09-05T20:14:17.888Z,83.00
2022-09-05T20:16:45.030Z,82.70
2022-09-05T20:19:29.934Z,83.10
2022-09-05T20:22:45.181Z,83.30
2022-09-05T20:24:51.847Z,83.30
2022-09-05T20:27:19.165Z,83.30
2022-09-05T20:29:59.081Z,83.50
2022-09-05T20:32:38.916Z,83.00
2022-09-05T20:40:10.481Z,82.70
2022-09-05T20:43:10.629Z,83.20
2022-09-05T20:43:17.605Z,83.50
2022-09-05T20:43:57.816Z,83.70
2022-09-05T20:52:49.040Z,83.70
2022-09-05T20:54:14.295Z,83.40
2022-09-05T20:54:17.177Z,83.80
2022-09-05T20:55:40.412Z,83.60
2022-09-05T20:58:24.768Z,83.40
2022-09-05T21:03:31.207Z,83.20
2022-09-05T21:06:29.503Z,83.30
2022-09-05T21:09:24.478Z,83.20
2022-09-05T21:11:57.139Z,83.30
2022-09-05T21:14:28.323Z,83.30
2022-09-05T21:17:01.277Z,83.50
2022-09-05T21:19:41.501Z,83.90
2022-09-05T21:22:48.802Z,83.70
2022-09-05T21:25:20.290Z,83.80
2022-09-05T21:27:59.609Z,84.20
2022-09-05T21:30:39.590Z,84.30
2022-09-05T21:33:09.961Z,84.50
2022-09-05T21:35:48.913Z,84.60
2022-09-05T21:38:32.246Z,84.40
2022-09-05T21:41:04.746Z,84.50
2022-09-05T21:47:33.203Z,84.90
2022-09-05T21:47:51.390Z,84.60
2022-09-05T21:49:08.965Z,85.40
2022-09-05T21:51:37.238Z,85.20
2022-09-05T21:59:16.779Z,85.70
2022-09-05T21:59:28.802Z,85.60
2022-09-05T21:59:47.462Z,86.20
2022-09-05T22:02:17.328Z,86.70
2022-09-05T22:04:44.366Z,86.40
2022-09-05T22:07:21.637Z,86.70
2022-09-05T22:09:58.814Z,87.10
2022-09-05T22:12:31.370Z,87.70
2022-09-05T22:15:04.557Z,87.50
2022-09-05T22:17:47.174Z,87.50
2022-09-05T22:20:16.689Z,87.40
2022-09-05T22:22:45.280Z,87.80
2022-09-05T22:25:30.334Z,87.80
2022-09-05T22:28:05.971Z,87.70
2022-09-05T22:30:35.502Z,88.20
2022-09-05T22:33:05.416Z,87.50
2022-09-05T22:35:34.434Z,87.70
2022-09-05T22:38:10.892Z,87.90
2022-09-05T22:40:40.586Z,87.90
2022-09-05T22:43:09.408Z,88.10
2022-09-05T22:45:39.194Z,88.00
2022-09-05T22:48:08.448Z,88.50
2022-09-05T22:50:35.862Z,88.70
2022-09-05T22:53:06.694Z,88.80
2022-09-05T22:55:38.774Z,88.90
2022-09-05T22:58:07.048Z,89.10
2022-09-05T23:00:34.715Z,89.40
2022-09-05T23:03:03.805Z,89.80
2022-09-05T23:05:32.267Z,89.70
2022-09-05T23:08:03.753Z,90.00
2022-09-05T23:10:31.417Z,90.00
2022-09-05T23:12:58.789Z,90.00
2022-09-05T23:15:26.341Z,89.90
2022-09-05T23:17:58.362Z,89.80
2022-09-05T23:20:28.993Z,90.00
2022-09-05T23:22:56.748Z,90.20
2022-09-05T23:25:23.947Z,90.10
2022-09-05T23:27:51.011Z,90.20
2022-09-05T23:30:18.161Z,90.20
2022-09-05T23:32:50.016Z,90.10
2022-09-05T23:35:18.242Z,90.30
2022-09-05T23:37:46.589Z,90.30
2022-09-05T23:40:15.040Z,90.40
2022-09-05T23:42:41.931Z,90.30
2022-09-05T23:45:09.748Z,90.40
2022-09-05T23:47:37.146Z,90.50
2022-09-05T23:50:04.771Z,90.70
2022-09-05T23:52:31.616Z,90.60
2022-09-05T23:54:58.448Z,90.50
2022-09-05T23:57:26.081Z,90.60
2022-09-05T23:59:53.019Z,90.80
